createdAt,value
2023-02-26T00:25:35.955Z,91591.00
2023-02-26T00:26:36.074Z,91591.00
2023-02-26T00:27:36.215Z,91593.00
2023-02-26T00:28:36.312Z,91589.00
2023-02-26T00:29:36.418Z,91587.00
2023-02-26T00:30:36.575Z,91587.00
2023-02-26T00:31:36.658Z,91587.00
2023-02-26T00:32:36.784Z,91587.00
2023-02-26T00:33:36.872Z,91585.00
2023-02-26T00:34:36.977Z,91587.00
2023-02-26T00:35:37.081Z,91587.00
2023-02-26T00:36:37.188Z,91587.00
2023-02-26T01:38:45.948Z,91573.00
2023-02-26T01:39:46.134Z,91575.00
2023-02-26T01:40:46.308Z,91573.00
2023-02-26T01:41:46.464Z,91573.00
2023-02-26T01:42:46.677Z,91575.00
2023-02-26T01:43:46.785Z,91573.00
2023-02-26T01:44:46.989Z,91573.00
2023-02-26T01:45:47.198Z,91577.00
2023-02-26T01:46:47.400Z,91577.00
2023-02-26T01:47:47.590Z,91577.00
2023-02-26T01:48:47.778Z,91579.00
2023-02-26T01:49:47.954Z,91577.00
2023-02-26T01:50:48.086Z,91579.00
2023-02-26T01:51:48.281Z,91581.00
2023-02-26T01:52:48.494Z,91577.00
2023-02-26T01:53:48.696Z,91579.00
2023-02-26T01:54:48.903Z,91577.00
2023-02-26T01:55:49.192Z,91577.00
2023-02-26T01:56:49.470Z,91577.00
2023-02-26T01:57:49.693Z,91575.00
2023-02-26T01:58:49.974Z,91579.00
2023-02-26T01:59:50.225Z,91581.00
2023-02-26T02:00:50.481Z,91579.00
2023-02-26T02:01:50.795Z,91579.00
2023-02-26T02:02:51.238Z,91579.00
2023-02-26T02:03:51.312Z,91579.00
2023-02-26T02:04:51.579Z,91579.00
2023-02-26T02:05:51.732Z,91579.00
2023-02-26T02:06:51.921Z,91577.00
2023-02-26T02:07:52.104Z,91575.00
2023-02-26T02:08:52.307Z,91579.00
2023-02-26T02:09:52.490Z,91581.00
2023-02-26T02:10:52.661Z,91579.00
2023-02-26T02:11:52.838Z,91581.00
2023-02-26T02:12:53.037Z,91579.00
2023-02-26T02:13:53.223Z,91579.00
2023-02-26T02:14:53.399Z,91577.00
2023-02-26T02:15:53.564Z,91577.00
2023-02-26T02:16:53.731Z,91575.00
2023-02-26T02:17:53.894Z,91577.00
2023-02-26T02:18:54.043Z,91579.00
2023-02-26T02:19:54.258Z,91579.00
2023-02-26T02:20:54.463Z,91579.00
2023-02-26T02:21:54.657Z,91579.00
2023-02-26T02:22:54.842Z,91577.00
2023-02-26T02:23:55.008Z,91575.00
2023-02-26T02:24:55.181Z,91575.00
2023-02-26T02:25:55.343Z,91575.00
2023-02-26T02:26:55.488Z,91577.00
2023-02-26T02:27:55.641Z,91577.00
2023-02-26T03:32:06.197Z,91573.00
2023-02-26T03:33:06.313Z,91573.00
2023-02-26T03:34:06.563Z,91569.00
2023-02-26T03:35:06.799Z,91571.00
2023-02-26T03:36:06.923Z,91575.00
2023-02-26T03:37:07.073Z,91575.00
2023-02-26T03:38:07.257Z,91579.00
2023-02-26T03:39:07.439Z,91575.00
2023-02-26T03:40:07.629Z,91577.00
2023-02-26T03:41:07.811Z,91577.00
2023-02-26T03:42:08.000Z,91577.00
2023-02-26T03:43:08.198Z,91575.00
2023-02-26T04:02:11.462Z,91587.00
2023-02-26T04:03:11.656Z,91589.00
2023-02-26T04:04:11.937Z,91587.00
2023-02-26T04:05:12.086Z,91593.00
2023-02-26T04:06:12.290Z,91596.00
2023-02-26T04:07:12.483Z,91593.00
2023-02-26T04:08:12.663Z,91595.00
2023-02-26T04:09:14.210Z,91596.00
2023-02-26T04:10:12.969Z,91596.00
2023-02-26T04:11:13.119Z,91600.00
2023-02-26T04:12:13.277Z,91602.00
2023-02-26T04:13:13.409Z,91602.00
2023-02-26T04:14:13.543Z,91600.00
2023-02-26T04:15:13.693Z,91600.00
2023-02-26T04:16:13.862Z,91606.00
2023-02-26T04:17:13.947Z,91602.00
2023-02-26T04:18:14.077Z,91604.00
2023-02-26T04:19:14.186Z,91600.00
2023-02-26T04:20:14.317Z,91604.00
2023-02-26T04:21:14.444Z,91604.00
2023-02-26T04:22:14.569Z,91604.00
2023-02-26T04:23:14.685Z,91602.00
2023-02-26T04:24:14.803Z,91604.00
2023-02-26T04:25:14.925Z,91602.00
2023-02-26T04:26:15.068Z,91606.00
2023-02-26T04:27:15.159Z,91608.00
2023-02-26T04:28:15.311Z,91610.00
2023-02-26T04:29:15.387Z,91612.00
2023-02-26T04:30:15.489Z,91612.00
2023-02-26T04:31:15.651Z,91614.00
2023-02-26T04:32:15.767Z,91614.00
2023-02-26T04:33:15.817Z,91616.00
2023-02-26T04:34:15.921Z,91620.00
2023-02-26T04:35:16.032Z,91616.00
2023-02-26T04:36:16.137Z,91620.00
2023-02-26T04:37:16.242Z,91620.00
2023-02-26T04:38:16.347Z,91622.00
2023-02-26T04:39:16.460Z,91622.00
2023-02-26T04:40:16.568Z,91622.00
2023-02-26T04:41:17.691Z,91624.00
2023-02-26T04:42:16.798Z,91622.00
2023-02-26T04:43:16.920Z,91620.00
2023-02-26T04:44:17.036Z,91624.00
2023-02-26T04:45:17.156Z,91620.00
2023-02-26T04:46:17.328Z,91624.00
2023-02-26T04:47:17.411Z,91628.00
2023-02-26T04:48:17.547Z,91628.00
2023-02-26T04:49:17.701Z,91630.00
2023-02-26T04:50:17.844Z,91628.00
2023-02-26T04:51:17.979Z,91626.00
2023-02-26T04:52:18.130Z,91630.00
2023-02-26T04:53:18.250Z,91630.00
2023-02-26T04:54:18.384Z,91628.00
2023-02-26T04:55:18.568Z,91628.00
2023-02-26T04:56:18.812Z,91632.00
2023-02-26T04:57:18.938Z,91634.00
2023-02-26T04:58:19.098Z,91636.00
2023-02-26T04:59:19.226Z,91636.00
2023-02-26T05:00:19.357Z,91642.00
2023-02-26T05:01:19.531Z,91638.00
2023-02-26T05:02:19.705Z,91638.00
2023-02-26T05:03:19.892Z,91638.00
2023-02-26T05:04:20.080Z,91642.00
2023-02-26T05:05:20.199Z,91638.00
2023-02-26T05:06:20.332Z,91638.00
2023-02-26T05:07:20.545Z,91634.00
2023-02-26T05:08:20.767Z,91636.00
2023-02-26T05:09:20.996Z,91632.00
2023-02-26T05:10:21.249Z,91630.00
2023-02-26T05:11:21.460Z,91632.00
2023-02-26T05:12:21.608Z,91632.00
2023-02-26T05:13:21.766Z,91630.00
2023-02-26T05:14:21.974Z,91632.00
2023-02-26T05:15:22.102Z,91632.00
2023-02-26T05:16:22.294Z,91632.00
2023-02-26T05:17:22.373Z,91634.00
2023-02-26T05:18:22.539Z,91634.00
2023-02-26T05:19:22.685Z,91640.00
2023-02-26T05:20:22.833Z,91640.00
2023-02-26T05:21:25.237Z,91642.00
2023-02-26T05:22:23.182Z,91643.00
2023-02-26T05:23:23.323Z,91645.00
2023-02-26T05:24:23.480Z,91645.00
2023-02-26T05:25:23.653Z,91643.00
2023-02-26T05:26:24.397Z,91647.00
2023-02-26T05:27:23.923Z,91642.00
2023-02-26T05:28:24.086Z,91647.00
2023-02-26T05:29:24.231Z,91643.00
2023-02-26T05:41:26.019Z,91661.00
2023-02-26T05:42:26.178Z,91661.00
2023-02-26T05:43:26.310Z,91659.00
2023-02-26T05:44:26.447Z,91659.00
2023-02-26T05:45:26.587Z,91663.00
2023-02-26T05:46:27.106Z,91665.00
2023-02-26T05:47:26.859Z,91665.00
2023-02-26T05:48:27.001Z,91663.00
2023-02-26T05:49:27.127Z,91669.00
2023-02-26T05:50:27.275Z,91671.00
2023-02-26T05:51:27.419Z,91673.00
2023-02-26T05:52:27.548Z,91675.00
2023-02-26T05:53:27.714Z,91677.00
2023-02-26T05:54:27.858Z,91679.00
2023-02-26T05:55:27.968Z,91681.00
2023-02-26T05:56:28.093Z,91679.00
2023-02-26T05:57:28.247Z,91679.00
2023-02-26T05:58:28.352Z,91681.00
2023-02-26T05:59:28.493Z,91681.00
2023-02-26T06:00:28.632Z,91685.00
2023-02-26T06:01:28.775Z,91687.00
2023-02-26T06:02:28.908Z,91689.00
2023-02-26T06:03:29.053Z,91685.00
2023-02-26T06:04:29.201Z,91685.00
2023-02-26T06:05:29.363Z,91685.00
2023-02-26T06:06:29.504Z,91685.00
2023-02-26T06:07:29.658Z,91689.00
2023-02-26T06:08:29.820Z,91687.00
2023-02-26T06:09:29.974Z,91690.00
2023-02-26T06:10:30.131Z,91685.00
2023-02-26T06:11:31.750Z,91683.00
2023-02-26T06:12:30.465Z,91683.00
2023-02-26T06:13:30.626Z,91687.00
2023-02-26T06:14:30.785Z,91685.00
2023-02-26T06:15:30.950Z,91683.00
2023-02-26T06:16:31.131Z,91685.00
2023-02-26T06:17:31.271Z,91689.00
2023-02-26T06:18:31.431Z,91687.00
2023-02-26T06:19:31.586Z,91690.00
2023-02-26T06:20:31.724Z,91692.00
2023-02-26T06:21:31.859Z,91692.00
2023-02-26T06:22:32.014Z,91694.00
2023-02-26T06:23:32.163Z,91694.00
2023-02-26T06:24:32.324Z,91694.00
2023-02-26T06:25:32.483Z,91696.00
2023-02-26T06:26:32.635Z,91694.00
2023-02-26T06:27:32.807Z,91694.00
2023-02-26T06:28:32.958Z,91696.00
2023-02-26T06:30:33.263Z,91702.00
2023-02-26T06:49:36.040Z,91720.00
2023-02-26T06:50:36.151Z,91720.00
2023-02-26T06:51:36.309Z,91722.00
2023-02-26T06:52:36.493Z,91724.00
2023-02-26T06:53:36.775Z,91724.00
2023-02-26T06:54:36.810Z,91724.00
2023-02-26T07:39:46.139Z,91779.00
2023-02-26T07:40:46.390Z,91779.00
2023-02-26T07:41:46.629Z,91783.00
2023-02-26T07:42:46.870Z,91783.00
2023-02-26T07:43:47.110Z,91783.00
2023-02-26T07:44:47.316Z,91779.00
2023-02-26T07:45:47.548Z,91783.00
2023-02-26T07:46:47.715Z,91787.00
2023-02-26T07:47:47.912Z,91787.00
2023-02-26T07:48:48.106Z,91789.00
2023-02-26T07:49:48.302Z,91789.00
2023-02-26T07:50:48.522Z,91793.00
2023-02-26T07:51:48.682Z,91793.00
2023-02-26T07:52:48.905Z,91797.00
2023-02-26T07:53:49.141Z,91793.00
2023-02-26T07:54:49.366Z,91795.00
2023-02-26T07:55:49.593Z,91797.00
2023-02-26T07:56:49.792Z,91799.00
2023-02-26T07:57:50.017Z,91804.00
2023-02-26T07:58:50.208Z,91802.00
2023-02-26T07:59:50.408Z,91806.00
2023-02-26T08:00:50.618Z,91804.00
2023-02-26T08:01:50.833Z,91802.00
2023-02-26T08:03:51.232Z,91806.00
2023-02-26T08:04:51.451Z,91806.00
2023-02-26T08:05:51.687Z,91816.00
2023-02-26T08:26:56.095Z,91851.00
2023-02-26T08:27:56.285Z,91851.00
2023-02-26T08:57:02.101Z,91861.00
2023-02-26T08:58:02.317Z,91863.00
2023-02-26T08:59:02.536Z,91863.00
2023-02-26T09:16:06.027Z,91851.00
2023-02-26T09:17:06.197Z,91851.00
2023-02-26T10:05:16.094Z,91865.00
2023-02-26T10:06:16.283Z,91863.00
2023-02-26T10:07:16.433Z,91867.00
2023-02-26T10:08:16.639Z,91873.00
2023-02-26T10:09:16.822Z,91875.00
2023-02-26T10:10:17.006Z,91867.00
2023-02-26T10:11:17.149Z,91865.00
2023-02-26T10:12:17.315Z,91861.00
2023-02-26T10:13:17.506Z,91863.00
2023-02-26T10:14:17.694Z,91859.00
2023-02-26T10:15:17.872Z,91867.00
2023-02-26T10:16:18.072Z,91867.00
2023-02-26T10:17:18.195Z,91869.00
2023-02-26T10:18:18.419Z,91875.00
2023-02-26T10:19:18.609Z,91880.00
2023-02-26T10:20:18.870Z,91880.00
2023-02-26T10:21:19.057Z,91880.00
2023-02-26T10:22:19.257Z,91882.00
2023-02-26T10:23:19.429Z,91884.00
2023-02-26T10:24:19.577Z,91882.00
2023-02-26T11:00:26.086Z,91896.00
2023-02-26T11:01:26.503Z,91900.00
2023-02-26T11:02:26.526Z,91898.00
2023-02-26T11:03:26.546Z,91892.00
2023-02-26T11:04:26.724Z,91882.00
2023-02-26T11:05:26.901Z,91884.00
2023-02-26T11:06:27.062Z,91873.00
2023-02-26T11:07:27.251Z,91867.00
2023-02-26T11:08:27.458Z,91878.00
2023-02-26T11:09:27.670Z,91876.00
2023-02-26T11:10:27.844Z,91876.00
2023-02-26T11:11:28.130Z,91876.00
2023-02-26T11:12:28.218Z,91882.00
2023-02-26T11:13:28.420Z,91884.00
2023-02-26T11:58:36.105Z,91882.00
2023-02-26T11:59:36.292Z,91886.00
2023-02-26T12:00:36.486Z,91888.00
2023-02-26T12:01:36.680Z,91880.00
2023-02-26T12:02:36.995Z,91876.00
2023-02-26T12:03:37.095Z,91875.00
2023-02-26T12:04:37.193Z,91876.00
2023-02-26T12:05:37.396Z,91875.00
2023-02-26T12:06:37.597Z,91871.00
2023-02-26T12:07:37.774Z,91876.00
2023-02-26T12:09:38.152Z,91878.00
2023-02-26T12:10:38.350Z,91878.00
2023-02-26T12:11:38.540Z,91875.00
2023-02-26T12:12:38.677Z,91875.00
2023-02-26T12:13:38.873Z,91876.00
2023-02-26T12:14:39.093Z,91875.00
2023-02-26T12:15:39.291Z,91878.00
2023-02-26T12:16:39.439Z,91886.00
2023-02-26T12:17:39.605Z,91884.00
2023-02-26T12:18:39.813Z,91876.00
2023-02-26T12:19:40.029Z,91884.00
2023-02-26T12:20:40.168Z,91876.00
2023-02-26T12:21:40.314Z,91876.00
2023-02-26T12:22:40.446Z,91888.00
2023-02-26T12:23:40.613Z,91890.00
2023-02-26T12:24:40.751Z,91888.00
2023-02-26T12:25:40.896Z,91888.00
2023-02-26T12:26:41.037Z,91884.00
2023-02-26T12:27:41.166Z,91876.00
2023-02-26T12:28:41.322Z,91884.00
2023-02-26T12:29:41.479Z,91890.00
2023-02-26T12:30:41.710Z,91888.00
2023-02-26T12:31:41.932Z,91902.00
2023-02-26T12:32:42.030Z,91882.00
2023-02-26T12:34:42.365Z,91880.00
2023-02-26T12:35:42.577Z,91880.00
2023-02-26T12:36:48.953Z,91888.00
2023-02-26T12:38:43.010Z,91890.00
2023-02-26T12:56:46.382Z,91892.00
2023-02-26T12:58:46.037Z,91894.00
2023-02-26T12:59:46.195Z,91888.00
2023-02-26T13:00:46.409Z,91894.00
2023-02-26T13:01:59.691Z,91892.00
2023-02-26T13:02:47.621Z,91888.00
2023-02-26T13:03:46.758Z,91894.00
2023-02-26T13:04:46.866Z,91888.00
2023-02-26T13:05:46.970Z,91892.00
2023-02-26T13:06:47.112Z,91890.00
2023-02-26T13:07:47.252Z,91894.00
2023-02-26T13:08:47.381Z,91904.00
2023-02-26T13:09:47.503Z,91902.00
2023-02-26T13:10:47.628Z,91900.00
2023-02-26T13:11:47.761Z,91906.00
2023-02-26T13:12:47.878Z,91896.00
2023-02-26T13:13:48.017Z,91900.00
2023-02-26T13:14:48.164Z,91898.00
2023-02-26T13:15:48.274Z,91894.00
2023-02-26T13:16:48.438Z,91896.00
2023-02-26T13:17:48.559Z,91896.00
2023-02-26T13:18:48.671Z,91904.00
2023-02-26T13:19:48.846Z,91904.00
2023-02-26T14:00:56.122Z,91953.00
2023-02-26T14:01:56.307Z,91945.00
2023-02-26T14:02:56.436Z,91953.00
2023-02-26T14:03:56.607Z,91967.00
2023-02-26T14:04:56.777Z,91961.00
2023-02-26T14:05:56.966Z,91959.00
2023-02-26T14:06:57.160Z,91959.00
2023-02-26T14:07:57.332Z,91963.00
2023-02-26T14:08:57.513Z,91955.00
2023-02-26T14:09:57.677Z,91959.00
2023-02-26T14:10:57.836Z,91953.00
2023-02-26T14:12:00.508Z,91957.00
2023-02-26T14:12:58.179Z,91959.00
2023-02-26T14:13:58.322Z,91961.00
2023-02-26T14:14:58.471Z,91961.00
2023-02-26T14:15:58.625Z,91959.00
2023-02-26T14:16:58.810Z,91955.00
2023-02-26T14:18:00.775Z,91959.00
2023-02-26T14:18:59.024Z,91967.00
2023-02-26T14:19:59.149Z,91961.00
2023-02-26T14:20:59.306Z,91967.00
2023-02-26T14:21:59.439Z,91977.00
2023-02-26T14:22:59.585Z,91980.00
2023-02-26T14:23:59.715Z,91975.00
2023-02-26T14:24:59.846Z,91980.00
2023-02-26T14:26:00.038Z,91973.00
2023-02-26T14:27:00.261Z,91975.00
2023-02-26T14:58:05.951Z,92004.00
2023-02-26T14:59:06.102Z,92006.00
2023-02-26T15:00:06.259Z,92010.00
2023-02-26T15:01:15.937Z,92010.00
2023-02-26T15:58:16.003Z,92082.00
2023-02-26T15:59:16.132Z,92084.00
2023-02-26T16:00:16.322Z,92088.00
2023-02-26T16:01:16.559Z,92082.00
2023-02-26T16:02:16.691Z,92086.00
2023-02-26T16:03:16.912Z,92086.00
2023-02-26T16:04:17.010Z,92088.00
2023-02-26T16:05:17.182Z,92082.00
2023-02-26T16:06:17.353Z,92090.00
2023-02-26T16:07:17.556Z,92088.00
2023-02-26T16:08:17.707Z,92092.00
2023-02-26T16:09:17.927Z,92098.00
2023-02-26T16:10:18.024Z,92096.00
2023-02-26T16:11:18.188Z,92100.00
2023-02-26T16:12:18.368Z,92100.00
2023-02-26T16:13:18.527Z,92102.00
2023-02-26T16:14:18.727Z,92108.00
2023-02-26T16:15:18.892Z,92106.00
2023-02-26T16:16:19.153Z,92111.00
2023-02-26T16:17:19.238Z,92109.00
2023-02-26T16:18:19.445Z,92106.00
2023-02-26T16:19:19.645Z,92115.00
2023-02-26T16:20:19.857Z,92117.00
2023-02-26T16:21:20.056Z,92113.00
2023-02-26T16:22:20.262Z,92115.00
2023-02-26T16:23:20.446Z,92115.00
2023-02-26T16:24:20.625Z,92125.00
2023-02-26T16:25:20.844Z,92121.00
2023-02-26T16:26:21.022Z,92119.00
2023-02-26T16:27:21.890Z,92115.00
2023-02-26T16:28:21.396Z,92123.00
2023-02-26T16:29:21.559Z,92125.00
2023-02-26T16:30:21.699Z,92127.00
2023-02-26T16:31:21.922Z,92127.00
2023-02-26T16:32:22.158Z,92131.00
2023-02-26T16:33:22.166Z,92129.00
2023-02-26T16:34:22.307Z,92133.00
2023-02-26T16:35:22.436Z,92139.00
2023-02-26T16:36:22.601Z,92143.00
2023-02-26T16:37:23.162Z,92149.00
2023-02-26T16:38:22.993Z,92147.00
2023-02-26T16:39:23.162Z,92149.00
2023-02-26T16:56:26.087Z,92178.00
2023-02-26T16:57:26.241Z,92180.00
2023-02-26T16:58:26.417Z,92182.00
2023-02-26T16:59:26.496Z,92184.00
2023-02-26T17:00:26.658Z,92188.00
2023-02-26T17:01:27.154Z,92188.00
2023-02-26T17:02:26.992Z,92190.00
2023-02-26T17:03:27.156Z,92192.00
2023-02-26T17:04:27.286Z,92192.00
2023-02-26T17:05:27.461Z,92190.00
2023-02-26T17:06:27.675Z,92194.00
2023-02-26T17:21:30.348Z,92182.00
2023-02-26T17:22:30.511Z,92186.00
2023-02-26T17:23:30.664Z,92190.00
2023-02-26T17:24:30.825Z,92190.00
2023-02-26T17:25:31.017Z,92190.00
2023-02-26T17:26:31.193Z,92188.00
2023-02-26T17:27:31.327Z,92198.00
2023-02-26T17:28:31.519Z,92204.00
2023-02-26T17:29:31.754Z,92208.00
2023-02-26T17:30:31.905Z,92204.00
2023-02-26T17:31:32.412Z,92208.00
2023-02-26T17:32:32.278Z,92212.00
2023-02-26T17:33:32.433Z,92210.00
2023-02-26T17:34:32.580Z,92210.00
2023-02-26T17:35:32.715Z,92214.00
2023-02-26T17:36:32.872Z,92218.00
2023-02-26T17:37:33.026Z,92221.00
2023-02-26T17:38:33.173Z,92221.00
2023-02-26T17:39:33.316Z,92227.00
2023-02-26T17:40:33.449Z,92225.00
2023-02-26T17:55:36.039Z,92247.00
2023-02-26T17:56:36.262Z,92251.00
2023-02-26T17:57:36.514Z,92245.00
2023-02-26T17:58:36.745Z,92249.00
2023-02-26T17:59:36.963Z,92247.00
2023-02-26T18:00:37.173Z,92247.00
2023-02-26T18:46:46.095Z,92247.00
2023-02-26T18:47:46.290Z,92245.00
2023-02-26T18:48:46.498Z,92241.00
2023-02-26T18:49:46.725Z,92237.00
2023-02-26T18:50:46.920Z,92237.00
2023-02-26T19:36:56.048Z,92241.00
2023-02-26T19:37:56.235Z,92241.00
2023-02-26T19:38:56.436Z,92247.00
2023-02-26T19:39:56.621Z,92251.00
2023-02-26T19:40:56.792Z,92251.00
2023-02-26T19:41:57.002Z,92249.00
2023-02-26T20:32:06.161Z,92315.00
2023-02-26T20:33:06.360Z,92310.00
2023-02-26T21:25:16.056Z,92339.00
2023-02-26T21:26:16.211Z,92341.00
2023-02-26T21:27:16.396Z,92337.00
2023-02-26T21:28:16.562Z,92345.00
2023-02-26T21:29:16.743Z,92343.00
2023-02-26T21:30:16.913Z,92345.00
2023-02-26T21:31:17.089Z,92339.00
2023-02-26T21:32:17.304Z,92337.00
2023-02-26T21:35:17.804Z,92333.00
2023-02-26T22:15:25.982Z,92354.00
2023-02-26T22:16:26.212Z,92358.00
2023-02-26T23:07:35.980Z,92376.00
2023-02-26T23:08:36.197Z,92376.00
2023-02-26T23:09:36.394Z,92380.00
2023-02-26T23:10:36.600Z,92380.00
2023-02-26T23:11:36.777Z,92382.00
2023-02-26T23:12:36.997Z,92380.00
2023-02-26T23:13:37.218Z,92380.00
2023-02-26T23:14:37.433Z,92380.00
2023-02-26T23:15:37.644Z,92384.00
2023-02-26T23:16:37.893Z,92382.00
2023-02-26T23:17:38.043Z,92382.00
2023-02-26T23:58:46.015Z,92415.00
2023-02-26T23:59:46.214Z,92411.00
